Time;durP1;ratioP1;P1;durP2;ratioP2;P2;SDS_P1;SDS_P2;PMS_P1;PMS_P2;Temp;Humidity;BMP_temperature;BMP_pressure;BME280_temperature;BME280_humidity;BME280_pressure;Samples;Min_cycle;Max_cycle;Signal;HPM_P1;HPM_P2
2021/10/30 00:00:52;;;;;;;;;;;11.30;96.90;;;;;;5086408;28;19912;-77
2021/10/30 00:03:17;;;;;;;;;;;11.30;97.00;;;;;;5086546;28;19908;-78
2021/10/30 00:05:45;;;;;;;;;;;11.40;97.00;;;;;;5088040;28;19919;-78
2021/10/30 00:08:11;;;;;;;;;;;11.40;97.00;;;;;;5088543;28;19915;-77
2021/10/30 00:10:36;;;;;;;;;;;11.30;96.90;;;;;;5092084;28;19923;-79
2021/10/30 00:13:02;;;;;;;;;;;11.30;97.00;;;;;;5092122;28;20351;-76
2021/10/30 00:15:28;;;;;;;;;;;11.40;97.00;;;;;;5090531;28;20283;-76
2021/10/30 00:17:54;;;;;;;;;;;11.40;97.20;;;;;;5091667;28;20330;-77
2021/10/30 00:20:19;;;;;;;;;;;11.40;97.00;;;;;;5091549;28;19912;-76
2021/10/30 00:22:45;;;;;;;;;;;11.30;96.90;;;;;;5091685;28;20362;-77
2021/10/30 00:25:10;;;;;;;;;;;11.30;96.90;;;;;;5090307;28;20339;-77
2021/10/30 00:27:37;;;;;;;;;;;11.20;96.90;;;;;;5091519;28;19923;-77
2021/10/30 00:30:03;;;;;;;;;;;11.20;96.90;;;;;;5091491;28;19958;-78
2021/10/30 00:32:28;;;;;;;;;;;11.10;97.00;;;;;;5072939;28;19916;-78
2021/10/30 00:34:54;;;;;;;;;;;10.90;97.00;;;;;;5089671;28;20438;-78
2021/10/30 00:37:19;;;;;;;;;;;10.90;97.10;;;;;;5089782;28;20058;-79
2021/10/30 00:39:45;;;;;;;;;;;10.80;97.10;;;;;;5089735;28;19912;-79
2021/10/30 00:42:11;;;;;;;;;;;10.70;97.20;;;;;;5090701;28;19969;-76
2021/10/30 00:44:36;;;;;;;;;;;10.70;97.20;;;;;;5089482;28;19916;-78
2021/10/30 00:47:02;;;;;;;;;;;10.60;97.20;;;;;;5090025;28;19908;-76
2021/10/30 00:49:28;;;;;;;;;;;10.60;97.30;;;;;;5091429;28;19915;-78
2021/10/30 00:51:55;;;;;;;;;;;10.50;97.30;;;;;;5089643;28;19920;-78
2021/10/30 00:54:22;;;;;;;;;;;10.50;97.40;;;;;;5091035;28;19915;-78
2021/10/30 00:56:49;;;;;;;;;;;10.50;97.40;;;;;;5091160;28;19994;-78
2021/10/30 00:59:15;;;;;;;;;;;10.50;97.40;;;;;;5089538;28;19912;-78
2021/10/30 01:01:42;;;;;;;;;;;10.50;97.40;;;;;;5091081;28;20330;-77
2021/10/30 01:04:07;;;;;;;;;;;10.40;97.40;;;;;;5090885;28;19984;-78
2021/10/30 01:06:34;;;;;;;;;;;10.40;97.40;;;;;;5089863;28;19919;-79
2021/10/30 01:09:00;;;;;;;;;;;10.30;97.40;;;;;;5091300;28;19938;-78
2021/10/30 01:11:26;;;;;;;;;;;10.30;97.30;;;;;;5091050;28;19913;-79
2021/10/30 01:13:53;;;;;;;;;;;10.30;97.30;;;;;;5090628;28;19978;-78
2021/10/30 01:16:19;;;;;;;;;;;10.20;97.30;;;;;;5089205;28;19912;-79
2021/10/30 01:18:45;;;;;;;;;;;10.10;97.30;;;;;;5090869;28;19916;-79
2021/10/30 01:21:10;;;;;;;;;;;10.10;97.40;;;;;;5087948;28;20286;-79
2021/10/30 01:23:36;;;;;;;;;;;10.00;97.30;;;;;;5072698;28;19923;-79
2021/10/30 01:26:02;;;;;;;;;;;10.00;97.40;;;;;;5090653;28;20375;-78
2021/10/30 01:28:28;;;;;;;;;;;9.90;97.40;;;;;;5090408;28;19909;-78
2021/10/30 01:30:54;;;;;;;;;;;9.90;97.50;;;;;;5089515;28;20356;-79
2021/10/30 01:33:20;;;;;;;;;;;9.80;97.50;;;;;;5090446;28;19912;-79
2021/10/30 01:35:46;;;;;;;;;;;9.80;97.60;;;;;;5089148;28;19912;-78
2021/10/30 01:38:11;;;;;;;;;;;9.70;97.60;;;;;;5090611;28;19958;-79
2021/10/30 01:40:45;;;;;;;;;;;9.70;97.70;;;;;;5088950;28;20261;-79
2021/10/30 01:43:11;;;;;;;;;;;9.60;97.70;;;;;;5090591;28;19912;-78
2021/10/30 01:45:37;;;;;;;;;;;9.60;97.70;;;;;;5090297;28;19912;-79
2021/10/30 01:48:03;;;;;;;;;;;9.50;97.80;;;;;;5090559;28;19912;-78
2021/10/30 01:50:29;;;;;;;;;;;9.50;97.80;;;;;;5088931;28;19932;-76
2021/10/30 01:52:56;;;;;;;;;;;9.40;97.80;;;;;;5072317;28;20382;-80
2021/10/30 01:55:22;;;;;;;;;;;9.40;97.80;;;;;;5088889;28;20336;-78
2021/10/30 01:57:49;;;;;;;;;;;9.40;97.90;;;;;;5090322;28;19916;-76
2021/10/30 02:00:15;;;;;;;;;;;9.30;97.80;;;;;;5088889;28;19950;-77
2021/10/30 02:02:41;;;;;;;;;;;9.30;97.80;;;;;;5089696;28;19916;-77
2021/10/30 02:05:07;;;;;;;;;;;9.30;97.80;;;;;;5089926;28;20371;-78
2021/10/30 02:07:33;;;;;;;;;;;9.30;97.90;;;;;;5088479;28;20039;-77
2021/10/30 02:09:59;;;;;;;;;;;9.30;97.90;;;;;;5071992;28;19919;-79
2021/10/30 02:12:24;;;;;;;;;;;9.20;97.90;;;;;;5089936;28;19920;-78
2021/10/30 02:14:50;;;;;;;;;;;9.20;97.90;;;;;;5089897;28;19912;-78
2021/10/30 02:17:16;;;;;;;;;;;9.20;98.00;;;;;;5089897;28;19994;-77
2021/10/30 02:19:43;;;;;;;;;;;9.10;98.00;;;;;;5089998;28;19909;-77
2021/10/30 02:22:08;;;;;;;;;;;9.10;98.10;;;;;;5089707;28;19929;-78
2021/10/30 02:24:34;;;;;;;;;;;9.10;98.20;;;;;;5088354;28;20362;-78
2021/10/30 02:27:00;;;;;;;;;;;9.00;98.20;;;;;;5089896;28;19912;-78
2021/10/30 02:29:25;;;;;;;;;;;9.00;98.20;;;;;;5089813;28;19915;-76
2021/10/30 02:31:51;;;;;;;;;;;9.00;98.30;;;;;;5088205;28;19912;-79
2021/10/30 02:34:16;;;;;;;;;;;9.00;98.20;;;;;;5089639;28;19916;-79
2021/10/30 02:36:42;;;;;;;;;;;9.00;98.20;;;;;;5089721;28;20014;-77
2021/10/30 02:39:10;;;;;;;;;;;8.90;98.20;;;;;;5089633;28;19912;-78
2021/10/30 02:41:36;;;;;;;;;;;8.90;98.20;;;;;;5089129;28;19920;-77
2021/10/30 02:44:02;;;;;;;;;;;8.90;98.20;;;;;;5088214;28;19908;-77
2021/10/30 02:46:28;;;;;;;;;;;8.90;98.20;;;;;;5088095;28;19924;-79
2021/10/30 02:48:53;;;;;;;;;;;8.90;98.20;;;;;;5088211;28;20281;-78
2021/10/30 02:51:19;;;;;;;;;;;8.90;98.20;;;;;;5088201;28;20415;-78
2021/10/30 02:53:44;;;;;;;;;;;8.80;98.30;;;;;;5071089;28;19920;-77
2021/10/30 02:56:10;;;;;;;;;;;8.80;98.30;;;;;;5087888;28;19961;-78
2021/10/30 02:58:35;;;;;;;;;;;8.80;98.30;;;;;;5089336;28;19947;-77
2021/10/30 03:01:01;;;;;;;;;;;8.80;98.30;;;;;;5089525;28;19939;-77
2021/10/30 03:03:26;;;;;;;;;;;8.80;98.40;;;;;;5087921;28;19916;-78
2021/10/30 03:05:52;;;;;;;;;;;8.80;98.40;;;;;;5087786;28;19919;-78
2021/10/30 03:08:18;;;;;;;;;;;8.70;98.50;;;;;;5089252;28;20001;-79
2021/10/30 03:10:43;;;;;;;;;;;8.70;98.50;;;;;;5089079;28;20014;-78
2021/10/30 03:13:10;;;;;;;;;;;8.70;98.50;;;;;;5089096;28;19930;-79
2021/10/30 03:15:35;;;;;;;;;;;8.70;98.60;;;;;;5087679;28;19919;-79
2021/10/30 03:18:01;;;;;;;;;;;8.60;98.60;;;;;;5087773;28;19923;-77
2021/10/30 03:20:26;;;;;;;;;;;8.60;98.60;;;;;;5088861;28;19958;-77
2021/10/30 03:22:52;;;;;;;;;;;8.60;98.60;;;;;;5087455;28;19965;-77
2021/10/30 03:25:17;;;;;;;;;;;8.60;98.60;;;;;;5088657;28;19955;-78
2021/10/30 03:27:43;;;;;;;;;;;8.50;98.60;;;;;;5087666;28;19973;-77
2021/10/30 03:30:09;;;;;;;;;;;8.50;98.60;;;;;;5087373;28;19927;-77
2021/10/30 03:32:35;;;;;;;;;;;8.50;98.60;;;;;;5088814;28;19912;-79
2021/10/30 03:35:00;;;;;;;;;;;8.50;98.70;;;;;;5087368;28;19912;-78
2021/10/30 03:37:26;;;;;;;;;;;8.40;98.70;;;;;;5088794;28;19938;-77
2021/10/30 03:39:52;;;;;;;;;;;8.40;98.70;;;;;;5087171;28;20011;-77
2021/10/30 03:42:18;;;;;;;;;;;8.40;98.70;;;;;;5087040;28;19924;-77
2021/10/30 03:44:43;;;;;;;;;;;8.40;98.70;;;;;;5086735;28;19995;-79
2021/10/30 03:47:09;;;;;;;;;;;8.30;98.70;;;;;;5087258;28;19916;-77
2021/10/30 03:49:34;;;;;;;;;;;8.30;98.80;;;;;;5087194;28;20324;-77
2021/10/30 03:52:00;;;;;;;;;;;8.30;98.70;;;;;;5088495;28;19947;-78
2021/10/30 03:54:26;;;;;;;;;;;8.30;98.70;;;;;;5087028;28;20285;-79
2021/10/30 03:56:51;;;;;;;;;;;8.20;98.70;;;;;;5088434;28;19940;-77
2021/10/30 03:59:17;;;;;;;;;;;8.20;98.80;;;;;;5088450;28;20029;-80
2021/10/30 04:01:42;;;;;;;;;;;8.20;98.80;;;;;;5087222;28;19916;-78
2021/10/30 04:04:08;;;;;;;;;;;8.10;98.80;;;;;;5086957;28;19916;-78
2021/10/30 04:06:34;;;;;;;;;;;8.10;98.80;;;;;;5087154;28;19932;-77
2021/10/30 04:08:59;;;;;;;;;;;8.10;98.90;;;;;;5086936;28;20377;-78
2021/10/30 04:11:25;;;;;;;;;;;8.10;98.90;;;;;;5086990;28;20270;-76
2021/10/30 04:13:51;;;;;;;;;;;8.10;99.00;;;;;;5088313;28;19920;-79
2021/10/30 04:16:16;;;;;;;;;;;8.10;99.00;;;;;;5086853;28;19919;-78
2021/10/30 04:18:43;;;;;;;;;;;8.10;99.20;;;;;;5088232;28;20312;-77
2021/10/30 04:21:13;;;;;;;;;;;8.10;99.10;;;;;;5088240;28;19947;-77
2021/10/30 04:23:38;;;;;;;;;;;8.10;99.10;;;;;;5086806;28;19948;-77
2021/10/30 04:26:05;;;;;;;;;;;8.00;99.10;;;;;;5088046;28;19954;-79
2021/10/30 04:28:30;;;;;;;;;;;8.00;99.10;;;;;;5088194;28;20358;-77
2021/10/30 04:31:01;;;;;;;;;;;8.00;99.10;;;;;;5088322;28;20078;-80
2021/10/30 04:33:27;;;;;;;;;;;8.00;99.20;;;;;;5086956;28;19912;-78
2021/10/30 04:35:52;;;;;;;;;;;8.00;99.20;;;;;;5088467;28;19916;-79
2021/10/30 04:38:18;;;;;;;;;;;8.00;99.20;;;;;;5088082;28;20304;-76
2021/10/30 04:40:43;;;;;;;;;;;8.00;99.20;;;;;;5087819;28;20003;-79
2021/10/30 04:43:09;;;;;;;;;;;7.90;99.10;;;;;;5086679;28;19919;-80
2021/10/30 04:45:38;;;;;;;;;;;7.90;99.10;;;;;;5087953;28;19961;-79
2021/10/30 04:48:04;;;;;;;;;;;7.90;99.20;;;;;;5086671;28;19914;-78
2021/10/30 04:50:29;;;;;;;;;;;7.90;99.20;;;;;;5087902;28;20170;-79
2021/10/30 04:52:55;;;;;;;;;;;7.90;99.20;;;;;;5088219;28;19913;-78
2021/10/30 04:55:21;;;;;;;;;;;7.90;99.20;;;;;;5088906;28;19959;-78
2021/10/30 04:57:46;;;;;;;;;;;7.90;99.20;;;;;;5090358;28;19912;-78
2021/10/30 05:00:12;;;;;;;;;;;7.80;99.10;;;;;;5091527;28;19923;-79
2021/10/30 05:02:38;;;;;;;;;;;7.80;99.10;;;;;;5091560;28;19908;-77
2021/10/30 05:05:03;;;;;;;;;;;7.80;99.10;;;;;;5090185;28;19912;-78
2021/10/30 05:07:29;;;;;;;;;;;7.80;99.10;;;;;;5090202;28;20309;-77
2021/10/30 05:09:54;;;;;;;;;;;7.80;99.10;;;;;;5091502;28;19919;-79
2021/10/30 05:12:20;;;;;;;;;;;7.80;99.10;;;;;;5091373;28;19916;-78
2021/10/30 05:14:45;;;;;;;;;;;7.70;99.10;;;;;;5089872;28;20223;-78
2021/10/30 05:17:11;;;;;;;;;;;7.70;99.10;;;;;;5091438;28;20386;-77
2021/10/30 05:19:36;;;;;;;;;;;7.70;99.10;;;;;;5091191;28;20285;-77
2021/10/30 05:22:02;;;;;;;;;;;7.70;99.00;;;;;;5090072;28;19961;-77
2021/10/30 05:24:28;;;;;;;;;;;7.70;98.90;;;;;;5089896;28;19916;-79
2021/10/30 05:26:54;;;;;;;;;;;7.70;98.90;;;;;;5091124;28;19946;-78
2021/10/30 05:29:19;;;;;;;;;;;7.70;98.90;;;;;;5091075;28;20070;-78
2021/10/30 05:31:45;;;;;;;;;;;7.70;98.90;;;;;;5090119;28;19913;-77
2021/10/30 05:34:11;;;;;;;;;;;7.60;98.90;;;;;;5090961;28;19954;-79
2021/10/30 05:36:37;;;;;;;;;;;7.60;98.90;;;;;;5072903;28;19916;-79
2021/10/30 05:39:10;;;;;;;;;;;7.60;98.90;;;;;;5090877;28;20015;-77
2021/10/30 05:41:36;;;;;;;;;;;7.60;99.10;;;;;;5089172;28;19924;-79
2021/10/30 05:44:02;;;;;;;;;;;7.60;98.90;;;;;;5089523;28;19916;-77
2021/10/30 05:46:28;;;;;;;;;;;7.50;98.90;;;;;;5089278;28;20370;-78
2021/10/30 05:48:54;;;;;;;;;;;7.60;98.90;;;;;;5089331;28;19929;-79
2021/10/30 05:51:20;;;;;;;;;;;7.50;99.00;;;;;;5090563;28;19919;-76
2021/10/30 05:53:45;;;;;;;;;;;7.50;99.00;;;;;;5089180;28;20294;-77
2021/10/30 05:56:11;;;;;;;;;;;7.50;99.00;;;;;;5089326;28;20171;-77
2021/10/30 05:58:37;;;;;;;;;;;7.50;99.00;;;;;;5090598;28;20335;-78
2021/10/30 06:01:02;;;;;;;;;;;7.50;99.00;;;;;;5089072;28;19916;-78
2021/10/30 06:03:28;;;;;;;;;;;7.50;99.00;;;;;;5090176;28;20328;-78
2021/10/30 06:05:54;;;;;;;;;;;7.50;99.00;;;;;;5088385;28;20290;-79
2021/10/30 06:08:19;;;;;;;;;;;7.50;99.00;;;;;;5090137;28;20336;-78
2021/10/30 06:10:45;;;;;;;;;;;7.50;99.00;;;;;;5090454;28;19913;-80
2021/10/30 06:13:10;;;;;;;;;;;7.50;99.00;;;;;;5088678;28;19918;-79
2021/10/30 06:15:36;;;;;;;;;;;7.50;99.00;;;;;;5089957;28;19916;-78
2021/10/30 06:18:01;;;;;;;;;;;7.50;99.10;;;;;;5090120;28;19956;-78
2021/10/30 06:20:27;;;;;;;;;;;7.50;99.10;;;;;;5088752;28;19938;-77
2021/10/30 06:22:53;;;;;;;;;;;7.50;99.30;;;;;;5090030;28;20273;-77
2021/10/30 06:25:18;;;;;;;;;;;7.50;99.10;;;;;;5089953;28;19912;-76
2021/10/30 06:27:44;;;;;;;;;;;7.50;99.10;;;;;;5088589;28;19920;-79
2021/10/30 06:30:10;;;;;;;;;;;7.40;99.10;;;;;;5088629;28;19919;-77
2021/10/30 06:32:36;;;;;;;;;;;7.40;99.10;;;;;;5089764;28;19920;-77
2021/10/30 06:35:02;;;;;;;;;;;7.40;99.10;;;;;;5088191;28;20275;-77
2021/10/30 06:37:28;;;;;;;;;;;7.40;99.20;;;;;;5088207;28;19919;-77
2021/10/30 06:39:53;;;;;;;;;;;7.40;99.20;;;;;;5088471;28;20415;-77
2021/10/30 06:42:19;;;;;;;;;;;7.40;99.20;;;;;;5070737;28;19928;-73
2021/10/30 06:44:45;;;;;;;;;;;7.40;99.20;;;;;;5089422;28;19909;-77
2021/10/30 06:47:11;;;;;;;;;;;7.40;99.20;;;;;;5088104;28;19953;-77
2021/10/30 06:49:36;;;;;;;;;;;7.40;99.20;;;;;;5089445;28;19919;-78
2021/10/30 06:52:04;;;;;;;;;;;7.40;99.30;;;;;;5089359;28;19911;-76
2021/10/30 06:54:29;;;;;;;;;;;7.40;99.20;;;;;;5088083;28;19972;-77
2021/10/30 06:56:55;;;;;;;;;;;7.30;99.20;;;;;;5089313;28;19916;-78
2021/10/30 06:59:21;;;;;;;;;;;7.30;99.20;;;;;;5089202;28;19955;-78
2021/10/30 07:01:46;;;;;;;;;;;7.30;99.20;;;;;;5089079;28;19912;-77
2021/10/30 07:04:12;;;;;;;;;;;7.30;99.30;;;;;;5089064;28;19923;-77
2021/10/30 07:06:38;;;;;;;;;;;7.30;99.30;;;;;;5087787;28;19908;-76
2021/10/30 07:09:03;;;;;;;;;;;7.30;99.30;;;;;;5087808;28;19916;-78
2021/10/30 07:11:29;;;;;;;;;;;7.30;99.30;;;;;;5087735;28;19927;-78
2021/10/30 07:13:55;;;;;;;;;;;7.30;99.30;;;;;;5087266;28;20316;-77
2021/10/30 07:16:20;;;;;;;;;;;7.30;99.30;;;;;;5086916;28;19916;-77
2021/10/30 07:18:46;;;;;;;;;;;7.30;99.40;;;;;;5086637;28;20281;-78
2021/10/30 07:21:12;;;;;;;;;;;7.30;99.40;;;;;;5087289;28;20019;-77
2021/10/30 07:23:38;;;;;;;;;;;7.30;99.30;;;;;;5088615;28;19908;-77
2021/10/30 07:26:04;;;;;;;;;;;7.30;99.30;;;;;;5087103;28;19908;-78
2021/10/30 07:28:30;;;;;;;;;;;7.30;99.50;;;;;;5088427;28;19940;-79
2021/10/30 07:30:55;;;;;;;;;;;7.30;99.70;;;;;;5088614;28;19967;-78
2021/10/30 07:33:21;;;;;;;;;;;7.40;99.70;;;;;;5088606;28;19909;-78
2021/10/30 07:35:47;;;;;;;;;;;7.50;99.70;;;;;;5088480;28;20316;-78
2021/10/30 07:38:12;;;;;;;;;;;7.50;99.70;;;;;;5087033;28;19916;-77
2021/10/30 07:40:38;;;;;;;;;;;7.60;99.70;;;;;;5069887;28;19965;-78
2021/10/30 07:43:03;;;;;;;;;;;7.60;99.60;;;;;;5088164;28;19942;-78
2021/10/30 07:45:29;;;;;;;;;;;7.60;99.50;;;;;;5087963;28;20427;-78
2021/10/30 07:47:56;;;;;;;;;;;7.60;99.40;;;;;;5086777;28;19916;-77
2021/10/30 07:50:22;;;;;;;;;;;7.60;99.30;;;;;;5087715;28;19912;-77
2021/10/30 07:52:48;;;;;;;;;;;7.60;99.30;;;;;;5088123;28;19912;-77
2021/10/30 07:55:13;;;;;;;;;;;7.60;99.30;;;;;;5086619;28;19985;-77
2021/10/30 07:57:39;;;;;;;;;;;7.60;99.30;;;;;;5088096;28;19951;-78
2021/10/30 08:00:06;;;;;;;;;;;7.60;99.30;;;;;;5087957;28;20020;-78
2021/10/30 08:02:32;;;;;;;;;;;7.60;99.30;;;;;;5086443;28;19920;-78
2021/10/30 08:04:59;;;;;;;;;;;7.60;99.40;;;;;;5087670;28;19944;-80
2021/10/30 08:07:24;;;;;;;;;;;7.60;99.40;;;;;;5086317;28;19916;-78
2021/10/30 08:09:50;;;;;;;;;;;7.70;99.40;;;;;;5086490;28;19941;-78
2021/10/30 08:12:15;;;;;;;;;;;7.70;99.40;;;;;;5086572;28;19977;-78
2021/10/30 08:14:42;;;;;;;;;;;7.70;99.40;;;;;;5086340;28;19908;-77
2021/10/30 08:17:07;;;;;;;;;;;7.70;99.40;;;;;;5087876;28;19908;-76
2021/10/30 08:19:33;;;;;;;;;;;7.80;99.40;;;;;;5086574;28;20065;-78
2021/10/30 08:21:59;;;;;;;;;;;7.80;99.50;;;;;;5087519;28;19912;-79
2021/10/30 08:24:25;;;;;;;;;;;7.80;99.50;;;;;;5086232;28;19916;-78
2021/10/30 08:26:51;;;;;;;;;;;7.90;99.50;;;;;;5088571;28;19919;-77
2021/10/30 08:29:16;;;;;;;;;;;7.90;99.60;;;;;;5088692;28;19936;-77
2021/10/30 08:31:42;;;;;;;;;;;8.00;99.80;;;;;;5092651;28;19926;-79
2021/10/30 08:34:07;;;;;;;;;;;8.20;99.90;;;;;;5092608;28;19966;-78
2021/10/30 08:36:33;;;;;;;;;;;8.90;99.90;;;;;;5093945;28;19912;-78
2021/10/30 08:38:59;;;;;;;;;;;10.00;99.90;;;;;;5075483;28;20038;-78
2021/10/30 08:41:25;;;;;;;;;;;11.00;99.90;;;;;;5092769;28;19978;-77
2021/10/30 08:43:51;;;;;;;;;;;11.80;99.90;;;;;;5092985;28;19916;-78
2021/10/30 08:46:17;;;;;;;;;;;12.00;98.30;;;;;;5093135;28;19908;-78
2021/10/30 08:48:46;;;;;;;;;;;11.70;97.20;;;;;;5091476;28;19915;-79
2021/10/30 08:51:13;;;;;;;;;;;11.30;96.90;;;;;;5091509;28;20285;-77
2021/10/30 08:53:38;;;;;;;;;;;11.00;96.90;;;;;;5093305;28;19908;-78
2021/10/30 08:56:05;;;;;;;;;;;10.70;97.20;;;;;;5092288;28;19916;-78
2021/10/30 08:58:31;;;;;;;;;;;10.40;97.50;;;;;;5091573;28;19912;-78
2021/10/30 09:00:59;;;;;;;;;;;10.40;98.40;;;;;;5092438;28;19950;-78
2021/10/30 09:03:25;;;;;;;;;;;11.20;99.90;;;;;;5092610;28;20396;-77
2021/10/30 09:05:52;;;;;;;;;;;12.20;99.90;;;;;;5090983;28;19997;-78
2021/10/30 09:08:20;;;;;;;;;;;13.30;99.60;;;;;;5090003;28;19915;-79
2021/10/30 09:10:51;;;;;;;;;;;14.30;98.60;;;;;;5092265;28;19936;-79
2021/10/30 09:13:19;;;;;;;;;;;15.10;97.20;;;;;;5092861;28;19915;-79
2021/10/30 09:15:54;;;;;;;;;;;15.80;96.50;;;;;;5091658;28;20292;-79
2021/10/30 09:18:22;;;;;;;;;;;16.40;95.90;;;;;;5091227;28;19916;-79
2021/10/30 09:20:49;;;;;;;;;;;17.00;94.40;;;;;;5091094;28;19919;-79
2021/10/30 09:23:20;;;;;;;;;;;17.40;93.40;;;;;;5092225;28;19925;-80
2021/10/30 09:25:56;;;;;;;;;;;17.60;92.20;;;;;;5090172;28;19908;-78
2021/10/30 09:28:28;;;;;;;;;;;17.60;90.80;;;;;;5084619;28;19912;-76
2021/10/30 09:30:58;;;;;;;;;;;17.30;90.40;;;;;;5091322;28;19918;-75
2021/10/30 09:33:25;;;;;;;;;;;17.20;90.70;;;;;;5090327;28;19935;-78
2021/10/30 09:35:51;;;;;;;;;;;17.50;91.00;;;;;;5091123;28;19912;-79
2021/10/30 09:38:28;;;;;;;;;;;17.90;91.00;;;;;;5089398;28;19912;-78
2021/10/30 09:40:54;;;;;;;;;;;18.30;90.00;;;;;;5085170;28;20413;-79
2021/10/30 09:43:22;;;;;;;;;;;18.60;89.00;;;;;;5091842;28;19990;-78
2021/10/30 09:45:49;;;;;;;;;;;18.80;87.20;;;;;;5091817;28;19908;-79
2021/10/30 09:48:23;;;;;;;;;;;19.00;87.40;;;;;;5091468;28;19912;-77
2021/10/30 09:50:50;;;;;;;;;;;19.30;86.10;;;;;;5091741;28;19943;-77
2021/10/30 09:53:38;;;;;;;;;;;19.50;84.00;;;;;;5090407;28;19951;-78
2021/10/30 09:56:05;;;;;;;;;;;19.60;82.50;;;;;;5090783;28;19995;-77
2021/10/30 09:58:49;;;;;;;;;;;19.80;81.90;;;;;;5090553;28;20016;-78
2021/10/30 10:01:16;;;;;;;;;;;19.90;80.80;;;;;;5088930;28;19920;-79
2021/10/30 10:03:42;;;;;;;;;;;20.00;80.20;;;;;;5089872;28;19969;-79
2021/10/30 10:06:09;;;;;;;;;;;20.20;79.20;;;;;;5091382;28;19912;-77
2021/10/30 10:08:37;;;;;;;;;;;20.40;78.70;;;;;;5090836;28;20045;-77
2021/10/30 10:11:05;;;;;;;;;;;20.40;77.50;;;;;;5091413;28;20362;-79
2021/10/30 10:13:31;;;;;;;;;;;20.60;78.50;;;;;;5092709;28;19908;-79
2021/10/30 10:15:58;;;;;;;;;;;20.80;78.80;;;;;;5090443;28;20267;-79
2021/10/30 10:18:23;;;;;;;;;;;21.10;77.70;;;;;;5091733;28;19961;-81
2021/10/30 10:20:50;;;;;;;;;;;21.30;77.20;;;;;;5090177;28;19913;-78
2021/10/30 10:23:18;;;;;;;;;;;21.40;76.40;;;;;;5090182;28;19937;-78
2021/10/30 10:25:52;;;;;;;;;;;21.40;74.40;;;;;;5089878;28;20394;-79
2021/10/30 10:28:21;;;;;;;;;;;21.40;73.30;;;;;;5091173;28;19909;-78
2021/10/30 10:30:57;;;;;;;;;;;21.40;74.00;;;;;;5090360;28;19908;-78
2021/10/30 10:33:24;;;;;;;;;;;21.50;74.70;;;;;;5091289;28;19916;-77
2021/10/30 10:36:08;;;;;;;;;;;21.90;75.30;;;;;;5090625;28;19927;-78
2021/10/30 10:38:52;;;;;;;;;;;22.30;76.40;;;;;;5090541;28;19975;-78
2021/10/30 10:41:36;;;;;;;;;;;22.60;75.60;;;;;;5090768;28;19951;-78
2021/10/30 10:44:05;;;;;;;;;;;22.70;72.30;;;;;;5090462;28;20353;-77
2021/10/30 10:46:31;;;;;;;;;;;22.60;71.20;;;;;;5090685;28;19912;-78
2021/10/30 10:49:14;;;;;;;;;;;22.50;70.80;;;;;;5090564;28;19992;-77
2021/10/30 10:51:58;;;;;;;;;;;22.50;70.00;;;;;;5088107;28;19919;-77
2021/10/30 10:54:24;;;;;;;;;;;22.30;68.70;;;;;;5088101;28;19916;-77
2021/10/30 10:56:56;;;;;;;;;;;22.20;69.30;;;;;;5089684;28;19923;-77
2021/10/30 10:59:38;;;;;;;;;;;22.10;68.80;;;;;;5089980;28;19945;-79
2021/10/30 11:02:14;;;;;;;;;;;22.20;69.40;;;;;;5074733;28;19916;-78
2021/10/30 11:04:40;;;;;;;;;;;22.30;68.80;;;;;;5089891;28;20447;-79
2021/10/30 11:07:10;;;;;;;;;;;22.40;68.30;;;;;;5088181;28;19928;-77
2021/10/30 11:09:45;;;;;;;;;;;22.40;68.70;;;;;;5088501;28;19910;-78
2021/10/30 11:12:24;;;;;;;;;;;22.50;68.80;;;;;;5090277;28;19916;-78
2021/10/30 11:15:16;;;;;;;;;;;22.50;69.40;;;;;;5083440;28;19961;-78
2021/10/30 11:17:45;;;;;;;;;;;22.80;69.80;;;;;;5087058;28;19912;-78
2021/10/30 11:20:14;;;;;;;;;;;23.00;70.50;;;;;;5088094;28;19908;-77
2021/10/30 11:22:54;;;;;;;;;;;23.10;68.00;;;;;;5088114;28;20689;-74
2021/10/30 11:25:19;;;;;;;;;;;23.00;67.20;;;;;;5089564;28;19908;-78
2021/10/30 11:27:52;;;;;;;;;;;22.80;66.40;;;;;;5089306;28;19919;-77
2021/10/30 11:30:29;;;;;;;;;;;22.70;66.80;;;;;;5089041;28;19916;-78
2021/10/30 11:32:55;;;;;;;;;;;22.80;68.00;;;;;;5089864;28;20269;-77
2021/10/30 11:35:20;;;;;;;;;;;22.80;66.60;;;;;;5088030;28;19991;-78
2021/10/30 11:37:46;;;;;;;;;;;22.70;66.20;;;;;;5087952;28;20320;-80
2021/10/30 11:40:11;;;;;;;;;;;22.70;66.10;;;;;;5071230;28;20380;-76
2021/10/30 11:42:41;;;;;;;;;;;22.60;64.70;;;;;;5089202;28;20298;-80
2021/10/30 11:45:07;;;;;;;;;;;22.40;64.60;;;;;;5084773;28;19915;-78
2021/10/30 11:47:32;;;;;;;;;;;22.20;64.10;;;;;;5067581;28;20430;-77
2021/10/30 11:49:58;;;;;;;;;;;22.00;64.30;;;;;;5069152;28;19915;-77
2021/10/30 11:52:25;;;;;;;;;;;21.60;63.20;;;;;;5069349;28;19930;-78
2021/10/30 11:54:58;;;;;;;;;;;21.00;63.30;;;;;;5084661;28;19972;-79
2021/10/30 11:57:24;;;;;;;;;;;20.70;64.10;;;;;;5087790;28;19923;-76
2021/10/30 11:59:56;;;;;;;;;;;20.70;65.00;;;;;;5087709;28;19912;-75
2021/10/30 12:02:21;;;;;;;;;;;20.90;65.50;;;;;;5082097;28;19912;-76
2021/10/30 12:04:47;;;;;;;;;;;21.00;65.70;;;;;;5086902;28;20377;-77
2021/10/30 12:07:14;;;;;;;;;;;21.00;65.30;;;;;;5070733;28;20232;-77
2021/10/30 12:09:43;;;;;;;;;;;21.20;65.80;;;;;;5087503;28;20007;-77
2021/10/30 12:12:10;;;;;;;;;;;21.30;64.50;;;;;;5087240;28;19912;-78
2021/10/30 12:14:37;;;;;;;;;;;21.20;65.00;;;;;;5088346;28;19912;-78
2021/10/30 12:17:04;;;;;;;;;;;21.00;64.60;;;;;;5087933;28;19916;-78
2021/10/30 12:19:34;;;;;;;;;;;21.00;65.00;;;;;;5088475;28;19948;-78
2021/10/30 12:22:30;;;;;;;;;;;20.50;64.50;;;;;;5087876;28;20312;-77
2021/10/30 12:25:03;;;;;;;;;;;19.90;64.20;;;;;;5073378;28;19908;-78
2021/10/30 12:27:29;;;;;;;;;;;19.30;65.20;;;;;;5089398;28;19912;-78
2021/10/30 12:30:04;;;;;;;;;;;19.00;65.60;;;;;;5088246;28;20655;-78
2021/10/30 12:32:35;;;;;;;;;;;18.70;66.00;;;;;;5079311;28;19948;-77
2021/10/30 12:35:01;;;;;;;;;;;18.80;66.90;;;;;;5087656;28;19908;-78
2021/10/30 12:37:28;;;;;;;;;;;19.10;67.60;;;;;;5087008;28;20423;-77
2021/10/30 12:39:55;;;;;;;;;;;19.60;67.80;;;;;;5089857;28;20033;-77
2021/10/30 12:42:21;;;;;;;;;;;19.90;67.70;;;;;;5091440;28;19924;-79
2021/10/30 12:44:49;;;;;;;;;;;20.20;67.90;;;;;;5089851;28;20344;-78
2021/10/30 12:47:15;;;;;;;;;;;20.40;67.20;;;;;;5088091;28;19908;-75
2021/10/30 12:49:43;;;;;;;;;;;20.40;66.10;;;;;;5088648;28;20252;-76
2021/10/30 12:52:14;;;;;;;;;;;20.20;65.70;;;;;;5087899;28;19908;-70
2021/10/30 12:54:59;;;;;;;;;;;19.90;64.90;;;;;;5087923;28;20271;-76
2021/10/30 12:57:26;;;;;;;;;;;19.50;64.40;;;;;;5079815;28;20052;-75
2021/10/30 12:59:59;;;;;;;;;;;18.90;64.60;;;;;;5088694;28;20269;-79
2021/10/30 13:02:27;;;;;;;;;;;18.50;65.10;;;;;;5088326;28;20247;-78
2021/10/30 13:04:53;;;;;;;;;;;18.20;65.90;;;;;;5088807;28;19958;-78
2021/10/30 13:07:19;;;;;;;;;;;17.90;66.00;;;;;;5087179;28;19913;-78
2021/10/30 13:09:53;;;;;;;;;;;17.60;65.90;;;;;;5088317;28;19916;-78
2021/10/30 13:12:19;;;;;;;;;;;17.20;65.90;;;;;;5073236;28;19909;-77
2021/10/30 13:14:44;;;;;;;;;;;16.80;66.30;;;;;;5089713;28;19965;-78
2021/10/30 13:17:10;;;;;;;;;;;16.50;66.50;;;;;;5069530;28;19913;-79
2021/10/30 13:19:36;;;;;;;;;;;16.20;66.70;;;;;;5054393;28;19952;-76
2021/10/30 13:22:01;;;;;;;;;;;15.90;67.10;;;;;;5086437;28;20255;-76
2021/10/30 13:24:27;;;;;;;;;;;15.80;68.10;;;;;;5090469;28;19912;-76
2021/10/30 13:26:52;;;;;;;;;;;16.00;68.70;;;;;;5090764;28;19979;-77
2021/10/30 13:29:18;;;;;;;;;;;16.00;68.50;;;;;;5073872;28;20523;-75
2021/10/30 13:31:44;;;;;;;;;;;16.00;68.30;;;;;;5091574;28;19935;-75
2021/10/30 13:34:10;;;;;;;;;;;15.80;68.10;;;;;;5090727;28;19953;-75
2021/10/30 13:36:36;;;;;;;;;;;15.60;68.20;;;;;;5090453;28;19991;-76
2021/10/30 13:39:02;;;;;;;;;;;15.50;68.90;;;;;;5073130;28;19968;-75
2021/10/30 13:41:28;;;;;;;;;;;15.60;69.70;;;;;;5091633;28;19920;-76
2021/10/30 13:43:55;;;;;;;;;;;15.80;69.70;;;;;;5091833;28;20416;-77
2021/10/30 13:46:21;;;;;;;;;;;15.80;69.30;;;;;;5089498;28;19918;-76
2021/10/30 13:48:48;;;;;;;;;;;15.70;68.90;;;;;;5091805;28;19908;-76
2021/10/30 13:51:13;;;;;;;;;;;15.70;69.40;;;;;;5091325;28;20370;-76
2021/10/30 13:53:39;;;;;;;;;;;15.80;70.00;;;;;;5092416;28;19909;-76
2021/10/30 13:56:04;;;;;;;;;;;15.90;70.00;;;;;;5090331;28;19938;-77
2021/10/30 13:58:30;;;;;;;;;;;15.90;69.50;;;;;;5090334;28;19912;-79
2021/10/30 14:00:56;;;;;;;;;;;15.80;69.20;;;;;;5091610;28;19922;-78
2021/10/30 14:03:21;;;;;;;;;;;15.60;68.90;;;;;;5089781;28;20373;-77
2021/10/30 14:05:47;;;;;;;;;;;15.50;69.00;;;;;;5090122;28;19972;-76
2021/10/30 14:08:12;;;;;;;;;;;15.40;69.00;;;;;;5074571;28;19924;-77
2021/10/30 14:10:40;;;;;;;;;;;15.20;69.20;;;;;;5070157;28;19995;-77
2021/10/30 14:13:06;;;;;;;;;;;15.10;69.40;;;;;;5089727;28;19908;-79
2021/10/30 14:15:32;;;;;;;;;;;15.10;69.60;;;;;;5090939;28;19908;-77
2021/10/30 14:17:57;;;;;;;;;;;15.00;69.90;;;;;;5089871;28;19939;-77
2021/10/30 14:20:23;;;;;;;;;;;15.00;70.10;;;;;;5091156;28;19913;-77
2021/10/30 14:22:48;;;;;;;;;;;15.10;70.10;;;;;;5069177;28;19916;-75